createdAt,value
2023-03-16T00:02:08.322Z,11.77
2023-03-16T00:04:38.177Z,10.82
2023-03-16T00:07:06.240Z,10.90
2023-03-16T00:09:34.750Z,10.90
2023-03-16T00:12:05.055Z,11.45
2023-03-16T00:14:32.841Z,10.95
2023-03-16T00:16:59.944Z,11.48
2023-03-16T00:19:26.868Z,11.85
2023-03-16T00:21:53.869Z,11.20
2023-03-16T00:24:20.891Z,11.32
2023-03-16T00:26:49.291Z,11.68
2023-03-16T00:29:16.253Z,10.88
2023-03-16T00:31:44.250Z,11.23
2023-03-16T00:34:11.437Z,10.70
2023-03-16T00:36:38.515Z,11.05
2023-03-16T00:39:05.950Z,11.23
2023-03-16T00:41:37.838Z,10.40
2023-03-16T00:44:09.414Z,11.50
2023-03-16T00:46:36.469Z,10.02
2023-03-16T00:49:04.125Z,10.77
2023-03-16T00:51:33.931Z,9.90
2023-03-16T00:54:00.915Z,10.43
2023-03-16T00:56:27.845Z,10.23
2023-03-16T00:58:57.881Z,9.75
2023-03-16T01:01:27.520Z,9.77
2023-03-16T01:03:54.939Z,10.45
2023-03-16T01:06:22.222Z,9.98
2023-03-16T01:08:49.245Z,9.98
2023-03-16T01:11:18.444Z,9.50
2023-03-16T01:13:47.402Z,9.43
2023-03-16T01:16:14.965Z,9.55
2023-03-16T01:18:43.306Z,10.23
2023-03-16T01:21:13.829Z,9.65
2023-03-16T01:23:41.384Z,10.05
2023-03-16T01:26:08.438Z,9.73
2023-03-16T01:28:35.999Z,9.23
2023-03-16T01:31:05.719Z,10.05
2023-03-16T01:33:34.325Z,9.80
2023-03-16T01:36:05.673Z,9.77
2023-03-16T01:38:40.935Z,9.65
2023-03-16T01:41:09.010Z,9.70
2023-03-16T01:43:38.022Z,10.00
2023-03-16T01:46:18.934Z,9.88
2023-03-16T01:49:08.248Z,10.23
2023-03-16T01:51:44.138Z,9.80
2023-03-16T01:54:19.125Z,10.10
2023-03-16T01:56:52.056Z,10.05
2023-03-16T01:59:23.385Z,10.40
2023-03-16T02:01:52.052Z,9.73
2023-03-16T02:04:32.398Z,9.60
2023-03-16T02:07:05.255Z,9.85
2023-03-16T02:09:34.567Z,9.65
2023-03-16T02:12:01.683Z,9.95
2023-03-16T02:14:30.063Z,9.02
2023-03-16T02:16:57.343Z,10.70
2023-03-16T02:19:35.126Z,10.07
2023-03-16T02:22:07.175Z,10.73
2023-03-16T02:24:35.004Z,10.07
2023-03-16T02:27:05.495Z,10.25
2023-03-16T02:30:01.134Z,10.05
2023-03-16T02:32:33.538Z,10.23
2023-03-16T02:35:03.051Z,10.18
2023-03-16T02:37:30.281Z,11.85
2023-03-16T02:39:57.231Z,11.23
2023-03-16T02:42:26.431Z,10.90
2023-03-16T02:45:00.385Z,10.75
2023-03-16T02:47:39.933Z,11.05
2023-03-16T02:52:37.738Z,12.40
2023-03-16T02:55:06.164Z,13.02
2023-03-16T02:57:33.493Z,12.98
2023-03-16T03:00:17.218Z,13.98
2023-03-16T03:02:46.266Z,14.80
2023-03-16T03:05:13.567Z,15.30
2023-03-16T03:07:40.791Z,17.05
2023-03-16T03:10:09.353Z,19.25
2023-03-16T03:12:36.404Z,19.50
2023-03-16T03:15:09.538Z,18.63
2023-03-16T03:17:47.448Z,20.17
2023-03-16T03:20:16.936Z,18.83
2023-03-16T03:22:45.308Z,20.08
2023-03-16T03:25:14.222Z,20.05
2023-03-16T03:27:42.743Z,19.10
2023-03-16T03:30:16.818Z,21.15
2023-03-16T03:32:44.324Z,22.05
2023-03-16T03:35:12.915Z,21.63
2023-03-16T03:37:41.070Z,22.17
2023-03-16T03:40:12.119Z,20.75
2023-03-16T03:42:41.345Z,20.85
2023-03-16T03:45:12.662Z,20.88
2023-03-16T03:47:43.195Z,20.92
2023-03-16T03:50:14.348Z,22.92
2023-03-16T03:53:04.513Z,21.05
2023-03-16T03:55:37.531Z,20.85
2023-03-16T03:58:04.532Z,22.40
2023-03-16T04:00:31.610Z,21.75
2023-03-16T04:03:00.260Z,21.10
2023-03-16T04:05:34.665Z,21.30
2023-03-16T04:08:01.779Z,21.33
2023-03-16T04:10:30.536Z,21.83
2023-03-16T04:12:59.802Z,22.25
2023-03-16T04:15:32.990Z,22.00
2023-03-16T04:18:13.036Z,21.90
2023-03-16T04:20:41.271Z,21.17
2023-03-16T04:23:09.190Z,20.35
2023-03-16T04:25:38.679Z,19.08
2023-03-16T04:28:06.649Z,20.20
2023-03-16T04:30:35.624Z,20.42
2023-03-16T04:33:14.941Z,20.73
2023-03-16T04:35:42.603Z,20.88
2023-03-16T04:38:10.748Z,20.67
2023-03-16T04:40:45.218Z,21.20
2023-03-16T04:43:17.343Z,20.67
2023-03-16T04:45:45.132Z,21.83
2023-03-16T04:48:13.573Z,22.60
2023-03-16T04:50:40.973Z,21.45
2023-03-16T04:53:08.214Z,20.95
2023-03-16T04:55:35.476Z,18.50
2023-03-16T04:58:03.324Z,20.80
2023-03-16T05:00:34.118Z,20.38
2023-03-16T05:03:14.564Z,18.80
2023-03-16T05:05:42.827Z,19.05
2023-03-16T05:08:12.257Z,18.77
2023-03-16T05:10:41.640Z,17.55
2023-03-16T05:13:09.050Z,19.20
2023-03-16T05:15:39.903Z,19.77
2023-03-16T05:18:25.880Z,19.67
2023-03-16T05:20:56.913Z,18.63
2023-03-16T05:23:28.603Z,17.75
2023-03-16T05:26:01.042Z,19.00
2023-03-16T05:28:31.128Z,19.10
2023-03-16T05:31:03.875Z,18.40
2023-03-16T05:33:38.828Z,18.13
2023-03-16T05:36:09.988Z,18.48
2023-03-16T05:38:39.333Z,17.35
2023-03-16T05:41:09.515Z,13.38
2023-03-16T05:44:04.499Z,12.90
2023-03-16T05:46:46.609Z,13.55
2023-03-16T05:49:16.103Z,13.20
2023-03-16T05:51:44.421Z,12.75
2023-03-16T05:54:12.155Z,13.32
2023-03-16T05:56:44.615Z,13.73
2023-03-16T05:59:11.751Z,12.07
2023-03-16T06:01:40.151Z,10.75
2023-03-16T06:04:07.771Z,11.60
2023-03-16T06:06:40.559Z,11.70
2023-03-16T06:09:15.235Z,11.38
2023-03-16T06:11:44.188Z,10.57
2023-03-16T06:14:11.324Z,10.15
2023-03-16T06:16:38.358Z,10.68
2023-03-16T06:19:05.499Z,10.00
2023-03-16T06:21:33.540Z,9.85
2023-03-16T06:24:09.329Z,9.27
2023-03-16T06:26:36.724Z,10.50
2023-03-16T06:29:05.883Z,9.77
2023-03-16T06:31:35.194Z,9.93
2023-03-16T06:34:03.120Z,10.13
2023-03-16T06:36:30.806Z,11.35
2023-03-16T06:39:00.236Z,11.48
2023-03-16T06:41:47.881Z,10.30
2023-03-16T06:44:16.812Z,11.10
2023-03-16T06:46:54.198Z,10.63
2023-03-16T06:49:21.328Z,10.40
2023-03-16T06:51:48.597Z,10.90
2023-03-16T06:54:15.725Z,11.32
2023-03-16T06:56:45.854Z,10.50
2023-03-16T06:59:14.629Z,11.13
2023-03-16T07:01:42.404Z,10.80
2023-03-16T07:04:09.427Z,11.65
2023-03-16T07:06:37.096Z,9.90
2023-03-16T07:09:05.082Z,10.15
2023-03-16T07:11:32.788Z,10.07
2023-03-16T07:14:00.139Z,10.65
2023-03-16T07:16:29.776Z,10.43
2023-03-16T07:18:59.456Z,10.52
2023-03-16T07:21:26.424Z,10.02
2023-03-16T07:23:55.776Z,10.65
2023-03-16T07:26:26.031Z,9.88
2023-03-16T07:28:59.693Z,10.07
2023-03-16T07:31:26.803Z,10.23
2023-03-16T07:33:57.534Z,10.93
2023-03-16T07:36:39.263Z,11.25
2023-03-16T07:39:06.366Z,10.65
2023-03-16T07:41:34.990Z,15.80
2023-03-16T07:44:28.206Z,9.75
2023-03-16T07:46:55.867Z,11.10
2023-03-16T07:49:27.888Z,18.45
2023-03-16T07:51:55.930Z,13.48
2023-03-16T07:54:28.560Z,9.55
2023-03-16T07:56:55.601Z,10.00
2023-03-16T08:01:58.883Z,6.72
2023-03-16T08:04:27.362Z,6.25
2023-03-16T08:07:02.929Z,7.53
2023-03-16T08:09:43.984Z,6.70
2023-03-16T08:12:15.259Z,5.88
2023-03-16T08:14:42.261Z,5.45
2023-03-16T08:17:23.674Z,4.82
2023-03-16T08:19:52.882Z,4.95
2023-03-16T08:22:21.106Z,4.75
2023-03-16T08:24:49.095Z,4.15
2023-03-16T08:27:19.970Z,5.07
2023-03-16T08:29:53.319Z,3.72
2023-03-16T08:32:22.804Z,3.67
2023-03-16T08:34:50.183Z,3.78
2023-03-16T08:37:19.578Z,3.45
2023-03-16T08:39:47.006Z,3.00
2023-03-16T08:42:16.828Z,3.28
2023-03-16T08:44:48.074Z,2.92
2023-03-16T08:47:15.216Z,2.90
2023-03-16T08:49:44.821Z,2.83
2023-03-16T08:52:15.924Z,2.97
2023-03-16T08:54:59.858Z,3.08
2023-03-16T08:57:29.222Z,2.92
2023-03-16T08:59:56.137Z,2.38
2023-03-16T09:02:23.091Z,3.10
2023-03-16T09:04:50.533Z,2.67
2023-03-16T09:07:18.749Z,3.28
2023-03-16T09:09:47.153Z,3.33
2023-03-16T09:12:14.461Z,3.17
2023-03-16T09:14:41.379Z,3.80
2023-03-16T09:17:08.384Z,3.50
2023-03-16T09:19:50.612Z,3.40
2023-03-16T09:22:19.797Z,3.65
2023-03-16T09:24:49.672Z,3.10
2023-03-16T09:27:17.738Z,3.67
2023-03-16T09:29:45.522Z,3.95
2023-03-16T09:32:13.072Z,4.30
2023-03-16T09:34:40.258Z,4.10
2023-03-16T09:37:07.591Z,3.50
2023-03-16T09:39:34.494Z,3.75
2023-03-16T09:42:10.167Z,3.33
2023-03-16T09:44:46.847Z,4.28
2023-03-16T09:47:16.728Z,4.70
2023-03-16T09:49:47.626Z,3.53
2023-03-16T09:52:27.241Z,3.75
2023-03-16T09:54:59.799Z,2.80
2023-03-16T09:57:31.396Z,2.63
2023-03-16T10:00:03.127Z,2.80
2023-03-16T10:02:52.228Z,3.00
2023-03-16T10:05:22.957Z,2.20
2023-03-16T10:07:57.784Z,2.92
2023-03-16T10:10:38.879Z,2.20
2023-03-16T10:13:17.364Z,1.92
2023-03-16T10:15:45.986Z,2.10
2023-03-16T10:18:17.633Z,1.90
2023-03-16T10:20:46.678Z,2.05
2023-03-16T10:23:17.927Z,2.30
2023-03-16T10:25:47.877Z,2.17
2023-03-16T10:28:19.062Z,2.92
2023-03-16T10:30:47.941Z,2.30
2023-03-16T10:33:21.839Z,1.95
2023-03-16T10:35:54.167Z,1.90
2023-03-16T10:38:30.760Z,1.60
2023-03-16T10:41:00.890Z,1.60
2023-03-16T10:43:30.003Z,2.00
2023-03-16T10:46:02.213Z,1.55
2023-03-16T10:48:34.079Z,2.10
2023-03-16T10:51:05.370Z,3.53
2023-03-16T10:53:36.704Z,1.90
2023-03-16T10:56:12.469Z,1.48
2023-03-16T10:58:42.687Z,1.50
2023-03-16T11:01:18.864Z,1.73
2023-03-16T11:03:51.365Z,1.73
2023-03-16T11:06:22.895Z,2.50
2023-03-16T11:08:52.307Z,1.40
2023-03-16T11:11:27.324Z,1.50
2023-03-16T11:13:59.876Z,1.70
2023-03-16T11:16:31.761Z,1.40
2023-03-16T11:19:04.777Z,1.50
2023-03-16T11:21:41.195Z,2.40
2023-03-16T11:24:17.248Z,1.30
2023-03-16T11:26:45.498Z,1.27
2023-03-16T11:29:20.293Z,1.20
2023-03-16T11:31:52.230Z,1.30
2023-03-16T11:34:29.042Z,1.17
2023-03-16T11:36:57.677Z,1.10
2023-03-16T11:39:32.833Z,1.40
2023-03-16T11:44:53.046Z,0.90
2023-03-16T11:47:50.911Z,1.30
2023-03-16T11:50:22.607Z,1.10
2023-03-16T11:52:57.392Z,1.33
2023-03-16T11:55:32.703Z,1.33
2023-03-16T12:00:40.427Z,0.90
2023-03-16T12:03:36.675Z,1.30
2023-03-16T12:06:23.341Z,1.20
2023-03-16T12:09:07.956Z,1.27
2023-03-16T12:11:42.003Z,1.20
2023-03-16T12:14:17.113Z,1.35
2023-03-16T12:16:54.844Z,1.45
2023-03-16T12:19:24.890Z,1.55
2023-03-16T12:22:01.316Z,2.20
2023-03-16T12:24:34.497Z,1.65
2023-03-16T12:27:02.674Z,1.60
2023-03-16T12:29:36.195Z,1.40
2023-03-16T12:32:11.800Z,1.60
2023-03-16T12:34:43.861Z,1.65
2023-03-16T12:37:22.670Z,1.20
2023-03-16T12:40:07.939Z,1.15
2023-03-16T12:43:16.720Z,1.30
2023-03-16T12:45:49.595Z,1.40
2023-03-16T12:48:27.379Z,1.98
2023-03-16T12:50:57.826Z,1.80
2023-03-16T12:53:46.765Z,2.85
2023-03-16T12:56:17.627Z,1.70
2023-03-16T12:58:47.161Z,2.75
2023-03-16T13:01:16.865Z,2.40
2023-03-16T13:03:48.116Z,2.28
2023-03-16T13:06:24.156Z,1.73
2023-03-16T13:08:57.817Z,2.65
2023-03-16T13:11:25.395Z,1.52
2023-03-16T13:14:05.842Z,1.90
2023-03-16T13:16:36.369Z,1.40
2023-03-16T13:19:25.302Z,1.50
2023-03-16T13:22:04.373Z,1.40
2023-03-16T13:24:53.074Z,1.30
2023-03-16T13:27:27.376Z,1.42
2023-03-16T13:29:59.474Z,1.70
2023-03-16T13:32:32.886Z,1.67
2023-03-16T13:35:05.346Z,1.58
2023-03-16T13:37:32.332Z,1.30
2023-03-16T13:40:01.686Z,1.15
2023-03-16T13:42:31.516Z,1.55
2023-03-16T13:45:03.917Z,1.73
2023-03-16T13:47:31.596Z,2.78
2023-03-16T13:50:00.147Z,1.23
2023-03-16T13:52:30.528Z,1.50
2023-03-16T13:54:59.431Z,1.45
2023-03-16T13:57:29.635Z,2.50
2023-03-16T14:00:05.971Z,1.77
2023-03-16T14:02:41.632Z,15.48
2023-03-16T14:05:11.671Z,11.45
2023-03-16T14:07:39.967Z,1.60
2023-03-16T14:10:09.472Z,1.98
2023-03-16T14:12:37.838Z,7.47
2023-03-16T14:15:07.228Z,10.40
2023-03-16T14:17:34.289Z,3.05
2023-03-16T14:20:04.061Z,4.78
2023-03-16T14:22:34.571Z,2.45
2023-03-16T14:25:05.659Z,3.53
2023-03-16T14:27:43.955Z,5.90
2023-03-16T14:30:18.369Z,1.65
2023-03-16T14:32:56.666Z,0.97
2023-03-16T14:35:27.806Z,1.08
2023-03-16T14:37:56.663Z,6.93
2023-03-16T14:40:28.861Z,4.57
2023-03-16T14:42:58.692Z,3.88
2023-03-16T14:45:31.428Z,2.13
2023-03-16T14:48:03.461Z,4.03
2023-03-16T14:50:32.579Z,3.20
2023-03-16T14:53:00.440Z,5.97
2023-03-16T14:55:29.008Z,7.38
2023-03-16T14:57:56.285Z,6.57
2023-03-16T15:00:25.484Z,8.95
2023-03-16T15:03:00.232Z,6.95
2023-03-16T15:05:35.199Z,3.53
2023-03-16T15:08:05.476Z,8.75
2023-03-16T15:10:35.337Z,0.90
2023-03-16T15:13:13.141Z,7.13
2023-03-16T15:15:44.018Z,4.03
2023-03-16T15:18:11.164Z,26.77
2023-03-16T15:20:43.955Z,40.30
2023-03-16T15:23:14.055Z,22.23
2023-03-16T15:25:43.827Z,22.80
2023-03-16T15:28:14.476Z,30.83
2023-03-16T15:30:42.470Z,20.67
2023-03-16T15:33:09.604Z,25.08
2023-03-16T15:35:37.137Z,22.35
2023-03-16T15:38:08.780Z,17.23
2023-03-16T15:40:44.292Z,16.30
2023-03-16T15:43:12.681Z,16.17
2023-03-16T15:45:39.689Z,15.13
2023-03-16T15:48:08.169Z,152.68
2023-03-16T15:50:39.002Z,51.17
2023-03-16T15:53:10.151Z,83.53
2023-03-16T15:55:40.747Z,73.60
2023-03-16T15:58:17.198Z,42.47
2023-03-16T16:00:44.400Z,51.90
2023-03-16T16:03:12.262Z,4.60
2023-03-16T16:05:39.484Z,1.15
2023-03-16T16:08:06.799Z,1.20
2023-03-16T16:10:34.615Z,1.05
2023-03-16T16:13:02.215Z,12.35
2023-03-16T16:15:34.059Z,2.42
2023-03-16T16:18:20.264Z,3.17
2023-03-16T16:20:48.389Z,0.60
2023-03-16T16:23:15.438Z,0.93
2023-03-16T16:25:44.995Z,0.60
2023-03-16T16:28:15.885Z,0.63
2023-03-16T16:30:44.592Z,0.63
2023-03-16T16:33:25.462Z,0.40
2023-03-16T16:35:53.797Z,0.70
2023-03-16T16:38:21.984Z,0.60
2023-03-16T16:40:49.929Z,2.78
2023-03-16T16:43:32.212Z,7.50
2023-03-16T16:46:01.268Z,82.40
2023-03-16T16:48:33.733Z,54.17
2023-03-16T16:51:01.292Z,155.85
2023-03-16T16:53:28.781Z,13.60
2023-03-16T16:55:57.001Z,47.70
2023-03-16T16:58:25.128Z,70.88
2023-03-16T17:00:56.741Z,271.48
2023-03-16T17:03:27.498Z,186.43
2023-03-16T17:05:58.414Z,94.20
2023-03-16T17:08:25.800Z,18.63
2023-03-16T17:10:53.885Z,10.30
2023-03-16T17:13:26.837Z,11.65
2023-03-16T17:15:54.961Z,4.85
2023-03-16T17:18:22.220Z,1.77
2023-03-16T17:20:50.774Z,4.53
2023-03-16T17:23:29.702Z,5.85
2023-03-16T17:25:59.289Z,2.80
2023-03-16T17:28:35.847Z,1.52
2023-03-16T17:31:03.050Z,1.20
2023-03-16T17:33:31.110Z,2.00
2023-03-16T17:36:02.063Z,1.80
2023-03-16T17:38:29.108Z,9.07
2023-03-16T17:40:56.455Z,7.78
2023-03-16T17:43:23.960Z,1.83
2023-03-16T17:45:52.417Z,3.55
2023-03-16T17:48:21.130Z,2.08
2023-03-16T17:50:48.981Z,1.60
2023-03-16T17:53:18.881Z,1.75
2023-03-16T17:55:46.826Z,2.70
2023-03-16T17:58:24.414Z,2.35
2023-03-16T18:00:52.833Z,2.28
2023-03-16T18:03:21.814Z,2.70
2023-03-16T18:05:48.837Z,3.10
2023-03-16T18:08:20.575Z,4.10
2023-03-16T18:10:50.955Z,4.13
2023-03-16T18:13:22.686Z,3.30
2023-03-16T18:15:50.658Z,3.40
2023-03-16T18:18:21.346Z,7.22
2023-03-16T18:20:50.753Z,7.20
2023-03-16T18:23:23.049Z,11.18
2023-03-16T18:25:52.918Z,8.25
2023-03-16T18:28:20.585Z,8.20
2023-03-16T18:30:51.976Z,8.68
2023-03-16T18:33:25.188Z,5.05
2023-03-16T18:35:54.030Z,3.78
2023-03-16T18:38:29.805Z,3.38
2023-03-16T18:40:56.984Z,2.80
2023-03-16T18:43:26.732Z,3.88
2023-03-16T18:45:55.039Z,5.25
2023-03-16T18:48:27.359Z,8.68
2023-03-16T18:50:54.322Z,10.68
2023-03-16T18:53:22.476Z,7.32
2023-03-16T18:55:51.935Z,5.22
2023-03-16T18:58:22.724Z,6.35
2023-03-16T19:00:53.778Z,8.68
2023-03-16T19:03:26.407Z,4.70
2023-03-16T19:05:56.230Z,4.97
2023-03-16T19:08:23.929Z,4.18
2023-03-16T19:10:56.368Z,4.80
2023-03-16T19:13:26.124Z,4.55
2023-03-16T19:15:54.787Z,5.25
2023-03-16T19:18:22.931Z,4.78
2023-03-16T19:20:51.107Z,5.63
2023-03-16T19:23:23.015Z,6.40
2023-03-16T19:25:54.353Z,6.55
2023-03-16T19:28:28.038Z,5.43
2023-03-16T19:30:55.569Z,6.10
2023-03-16T19:33:25.859Z,6.55
2023-03-16T19:35:53.974Z,6.25
2023-03-16T19:38:22.297Z,6.43
2023-03-16T19:40:52.963Z,7.05
2023-03-16T19:43:22.023Z,6.75
2023-03-16T19:45:49.295Z,5.63
2023-03-16T19:48:20.991Z,5.70
2023-03-16T19:50:49.183Z,5.57
2023-03-16T19:53:18.070Z,5.85
2023-03-16T19:55:47.289Z,7.07
2023-03-16T19:58:30.243Z,7.35
2023-03-16T20:00:58.111Z,7.15
2023-03-16T20:03:25.647Z,7.55
2023-03-16T20:05:52.546Z,10.73
2023-03-16T20:08:22.005Z,8.52
2023-03-16T20:10:49.714Z,6.85
2023-03-16T20:13:17.755Z,7.68
2023-03-16T20:15:47.486Z,7.10
2023-03-16T20:18:16.174Z,7.35
2023-03-16T20:20:44.138Z,6.70
2023-03-16T20:23:17.675Z,8.40
2023-03-16T20:25:45.092Z,7.18
2023-03-16T20:28:18.497Z,7.43
2023-03-16T20:30:47.597Z,11.65
2023-03-16T20:33:20.164Z,9.93
2023-03-16T20:35:49.549Z,7.40
2023-03-16T20:38:17.117Z,6.00
2023-03-16T20:40:46.579Z,5.78
2023-03-16T20:43:23.819Z,6.20
2023-03-16T20:45:53.552Z,5.13
2023-03-16T20:48:21.197Z,6.18
2023-03-16T20:50:48.365Z,5.25
2023-03-16T20:53:15.511Z,5.32
2023-03-16T20:55:43.128Z,5.18
2023-03-16T20:58:21.668Z,5.10
2023-03-16T21:00:52.548Z,5.55
2023-03-16T21:03:23.130Z,4.85
2023-03-16T21:05:50.862Z,4.80
2023-03-16T21:08:18.584Z,5.28
2023-03-16T21:10:48.243Z,5.35
2023-03-16T21:13:19.027Z,5.28
2023-03-16T21:15:46.962Z,5.10
2023-03-16T21:18:18.406Z,5.57
2023-03-16T21:20:48.252Z,5.75
2023-03-16T21:23:18.178Z,5.45
2023-03-16T21:25:48.296Z,5.63
2023-03-16T21:28:16.454Z,5.22
2023-03-16T21:30:45.984Z,5.00
2023-03-16T21:33:24.625Z,5.20
2023-03-16T21:35:53.016Z,5.10
2023-03-16T21:38:21.060Z,5.47
2023-03-16T21:40:48.669Z,4.97
2023-03-16T21:43:16.115Z,5.03
2023-03-16T21:45:43.846Z,5.30
2023-03-16T21:48:15.905Z,4.80
2023-03-16T21:50:44.093Z,4.97
2023-03-16T21:53:20.664Z,5.78
2023-03-16T21:55:49.717Z,5.00
2023-03-16T21:58:19.944Z,5.85
2023-03-16T22:00:47.439Z,5.25
2023-03-16T22:03:29.595Z,5.38
2023-03-16T22:08:31.117Z,5.00
2023-03-16T22:10:58.997Z,4.95
2023-03-16T22:13:29.326Z,5.00
2023-03-16T22:15:58.519Z,5.30
2023-03-16T22:18:28.852Z,5.03
2023-03-16T22:20:57.052Z,4.68
2023-03-16T22:23:30.907Z,4.97
2023-03-16T22:25:58.016Z,5.00
2023-03-16T22:28:25.636Z,5.35
2023-03-16T22:30:53.459Z,4.68
2023-03-16T22:33:24.751Z,4.38
2023-03-16T22:35:52.634Z,4.80
2023-03-16T22:38:19.716Z,5.22
2023-03-16T22:40:48.055Z,4.95
2023-03-16T22:43:19.702Z,4.40
2023-03-16T22:45:48.652Z,4.68
2023-03-16T22:48:19.815Z,4.60
2023-03-16T22:50:47.683Z,4.97
2023-03-16T22:53:20.620Z,4.53
2023-03-16T22:55:51.326Z,4.30
2023-03-16T22:58:30.904Z,4.50
2023-03-16T23:00:58.157Z,4.72
2023-03-16T23:03:25.389Z,4.65
2023-03-16T23:05:52.385Z,4.57
2023-03-16T23:08:21.246Z,4.53
2023-03-16T23:10:51.192Z,4.03
2023-03-16T23:13:20.940Z,4.65
2023-03-16T23:15:49.988Z,5.00
2023-03-16T23:18:18.839Z,4.80
2023-03-16T23:20:47.040Z,4.75
2023-03-16T23:23:14.270Z,4.05
2023-03-16T23:25:42.263Z,4.32
2023-03-16T23:28:15.452Z,4.60
2023-03-16T23:30:42.786Z,4.47
2023-03-16T23:33:11.689Z,4.45
2023-03-16T23:35:39.171Z,4.22
2023-03-16T23:38:06.302Z,3.53
2023-03-16T23:40:38.358Z,4.30
2023-03-16T23:43:05.837Z,4.28
2023-03-16T23:45:38.574Z,4.15
2023-03-16T23:48:08.092Z,3.83
2023-03-16T23:50:36.744Z,4.22
2023-03-16T23:53:03.775Z,3.92
2023-03-16T23:55:31.017Z,4.00
2023-03-16T23:57:58.035Z,4.05
